Česky Dansk Deutsch English Español Suomi Français Magyar Italiano Nederlands norsk Polski Português svenska Türkçe

 

Het Weer

Wejh (Saudi-Arabië)

02:00, 28 juli 2016 (GMT)

NWNNE
WE
SWSSE
Home            
Wejh Tabuk Yenbo Sharm El Sheikhintl Hurguada Madinah Luxor Eilat Aqaba Airport Taba El Tor Ma'An Asswan Ovda Al-Jouf Hail Asyut Jeddah King Abdul Aziz International Airport Beer-Sheva Guriat Jeddah El Arish Queen Alia Airport

Om een weerknop op uw website of weblog te plaatsen, copieer onderstaande code en plak die in uw pagina. In het eerste vakje staat HTML-code, in het tweede vakje UBB-code.


Add to Google

Details

Wind speed:4 bf, 11 kn, 5.7 m/s, 12.7 miles/h, 20.4 km/h
Wind direction:NW, 310°
Visibility:Greater than 10000 m, 10 km, 32800 ft, 6.2 miles
Clouds:CAVOC
Temperature:29°C, 84°F
Gefühlte Temperatur:37°C, 98°F
Dew-point:27°C, 81°F
Atmospheric pressure:1000 hPa, 750.1 mmHg, 29.53 inHg, 0.987 atm
Relative humidity:89.0 %
METAR:OEWJ 280200Z 31011KT CAVOK 29/27 Q1000 NOSIG

Snelkoppelingen

Actuele weersinformatie van de hele wereld. Voeg locaties toe met het plus (+) symbool. Deze snelkoppelingen kunnen worden toegevoegd aan Google.

Lid van de Technetium groep

website free tracking
StatCounter NetStat W3C Validator

17-12-2017 04:47:52
astro.technetium.be money.technetium.be phote.technetium.be tafeltennistafel.technetium.be www.ligfiets.net